createdAt,value
2019-01-10T00:01:24.126Z,53.15
2019-01-10T00:03:53.927Z,48.87
2019-01-10T00:06:23.812Z,54.48
2019-01-10T00:08:53.734Z,53.33
2019-01-10T00:11:23.510Z,50.52
2019-01-10T00:13:54.153Z,52.08
2019-01-10T00:16:23.898Z,52.53
2019-01-10T00:18:53.839Z,56.80
2019-01-10T00:21:23.676Z,51.90
2019-01-10T00:23:53.386Z,57.65
2019-01-10T00:26:23.152Z,57.00
2019-01-10T00:28:52.954Z,51.25
2019-01-10T00:31:22.777Z,50.90
2019-01-10T00:33:52.657Z,52.43
2019-01-10T00:36:22.604Z,50.98
2019-01-10T00:38:52.410Z,56.90
2019-01-10T00:41:22.324Z,49.53
2019-01-10T00:43:52.150Z,54.15
2019-01-10T00:46:21.961Z,52.30
2019-01-10T00:48:51.785Z,48.00
2019-01-10T00:51:21.506Z,51.20
2019-01-10T00:53:51.216Z,50.73
2019-01-10T00:56:21.298Z,50.78
2019-01-10T00:58:51.055Z,56.85
2019-01-10T01:01:20.774Z,49.30
2019-01-10T01:03:50.545Z,49.40
2019-01-10T01:06:20.404Z,51.50
2019-01-10T01:08:50.275Z,53.00
2019-01-10T01:11:20.078Z,49.27
2019-01-10T01:13:49.912Z,53.08
2019-01-10T01:16:19.674Z,50.25
2019-01-10T01:18:49.446Z,51.80
2019-01-10T01:21:19.292Z,56.63
2019-01-10T01:23:49.100Z,53.80
2019-01-10T01:26:18.852Z,61.40
2019-01-10T01:28:48.588Z,54.30
2019-01-10T01:31:18.314Z,55.12
2019-01-10T01:33:49.319Z,56.23
2019-01-10T01:36:19.073Z,55.33
2019-01-10T01:38:48.889Z,55.33
2019-01-10T01:41:18.710Z,51.80
2019-01-10T01:43:48.529Z,58.23
2019-01-10T01:46:18.318Z,59.42
2019-01-10T01:48:48.129Z,51.33
2019-01-10T01:51:17.853Z,55.60
2019-01-10T01:53:47.632Z,55.52
2019-01-10T01:56:17.416Z,55.10
2019-01-10T01:58:47.131Z,53.00
2019-01-10T02:01:16.929Z,52.60
2019-01-10T02:03:46.795Z,54.27
2019-01-10T02:06:16.559Z,58.33
2019-01-10T02:08:46.263Z,54.05
2019-01-10T02:11:16.141Z,47.88
2019-01-10T02:13:45.878Z,49.60
2019-01-10T02:16:15.591Z,49.27
2019-01-10T02:18:45.344Z,49.20
2019-01-10T02:21:15.072Z,48.90
2019-01-10T02:23:44.797Z,43.78
2019-01-10T02:26:14.547Z,47.27
2019-01-10T02:28:44.260Z,46.53
2019-01-10T02:31:14.038Z,51.28
2019-01-10T02:33:43.901Z,48.28
2019-01-10T02:36:13.648Z,50.17
2019-01-10T02:38:43.548Z,49.60
2019-01-10T02:41:13.369Z,49.18
2019-01-10T02:43:43.068Z,51.63
2019-01-10T02:46:12.867Z,52.30
2019-01-10T02:48:42.624Z,48.60
2019-01-10T02:51:12.407Z,47.00
2019-01-10T02:53:42.319Z,50.98
2019-01-10T02:56:12.167Z,51.28
2019-01-10T02:58:41.887Z,48.85
2019-01-10T03:01:11.635Z,48.38
2019-01-10T03:03:41.486Z,48.52
2019-01-10T03:06:11.341Z,46.70
2019-01-10T03:08:41.076Z,46.88
2019-01-10T03:11:11.060Z,49.25
2019-01-10T03:13:40.826Z,47.88
2019-01-10T03:16:10.552Z,49.03
2019-01-10T03:18:40.319Z,46.63
2019-01-10T03:21:10.064Z,49.65
2019-01-10T03:23:39.896Z,44.73
2019-01-10T03:26:09.685Z,46.28
2019-01-10T03:28:39.502Z,51.40
2019-01-10T03:31:09.216Z,49.30
2019-01-10T03:33:38.968Z,48.55
2019-01-10T03:36:08.825Z,48.95
2019-01-10T03:38:38.671Z,58.30
2019-01-10T03:41:08.517Z,53.15
2019-01-10T03:43:47.074Z,52.43
2019-01-10T03:46:09.774Z,55.88
2019-01-10T03:48:39.519Z,53.42
2019-01-10T03:51:09.225Z,53.83
2019-01-10T03:53:39.069Z,56.30
2019-01-10T03:56:08.881Z,56.20
2019-01-10T03:58:38.673Z,55.73
2019-01-10T04:01:08.394Z,55.98
2019-01-10T04:03:38.166Z,58.55
2019-01-10T04:06:07.991Z,54.18
2019-01-10T04:08:37.775Z,58.68
2019-01-10T04:11:07.536Z,50.25
2019-01-10T04:13:37.250Z,51.55
2019-01-10T04:16:07.142Z,53.58
2019-01-10T04:18:57.114Z,58.05
2019-01-10T04:21:32.132Z,52.83
2019-01-10T04:24:02.830Z,50.12
2019-01-10T04:26:32.668Z,52.50
2019-01-10T04:29:02.976Z,48.78
2019-01-10T04:31:32.774Z,54.08
2019-01-10T04:34:02.551Z,49.20
2019-01-10T04:36:32.432Z,50.48
2019-01-10T04:39:02.256Z,49.70
2019-01-10T04:41:32.184Z,51.25
2019-01-10T04:44:07.079Z,49.95
2019-01-10T04:46:33.515Z,45.30
2019-01-10T04:49:03.272Z,50.80
2019-01-10T04:51:33.083Z,49.13
2019-01-10T04:54:02.873Z,49.08
2019-01-10T04:56:32.656Z,48.38
2019-01-10T04:59:02.517Z,44.58
2019-01-10T05:01:32.421Z,48.48
2019-01-10T05:04:02.148Z,49.30
2019-01-10T05:06:31.967Z,47.55
2019-01-10T05:09:01.702Z,48.63
2019-01-10T05:11:31.492Z,49.88
2019-01-10T05:14:01.290Z,48.73
2019-01-10T05:16:31.064Z,49.40
2019-01-10T05:19:00.878Z,45.58
2019-01-10T05:21:30.865Z,46.65
2019-01-10T05:24:00.605Z,49.85
2019-01-10T05:26:30.360Z,46.90
2019-01-10T05:29:00.139Z,47.65
2019-01-10T05:31:30.031Z,50.43
2019-01-10T05:34:01.328Z,48.78
2019-01-10T05:36:31.174Z,48.15
2019-01-10T05:39:00.965Z,44.77
2019-01-10T05:41:30.831Z,44.73
2019-01-10T05:44:00.598Z,46.50
2019-01-10T05:46:30.321Z,48.25
2019-01-10T05:49:00.219Z,48.35
2019-01-10T05:51:30.027Z,49.98
2019-01-10T05:53:59.783Z,49.13
2019-01-10T05:56:29.544Z,44.85
2019-01-10T05:58:59.424Z,45.98
2019-01-10T06:01:29.208Z,45.98
2019-01-10T06:03:59.014Z,45.12
2019-01-10T06:06:28.801Z,43.05
2019-01-10T06:13:05.316Z,46.85
2019-01-10T06:16:10.517Z,47.48
2019-01-10T06:19:09.212Z,47.20
2019-01-10T06:22:00.672Z,42.08
2019-01-10T06:24:39.849Z,44.67
2019-01-10T06:27:47.706Z,44.73
2019-01-10T06:34:21.523Z,43.65
2019-01-10T06:37:42.115Z,41.30
2019-01-10T06:40:13.301Z,40.88
2019-01-10T06:42:43.570Z,42.35
2019-01-10T06:45:24.454Z,42.53
2019-01-10T06:49:12.119Z,41.45
2019-01-10T06:52:20.502Z,45.05
2019-01-10T06:54:56.581Z,50.80
2019-01-10T08:10:10.020Z,30.80
2019-01-10T08:16:11.975Z,31.93
2019-01-10T08:18:42.005Z,26.30
2019-01-10T08:21:12.030Z,27.22
2019-01-10T08:23:45.615Z,26.75
2019-01-10T08:26:30.340Z,24.75
2019-01-10T08:29:02.562Z,26.12
2019-01-10T08:31:33.048Z,23.35
2019-01-10T08:34:06.032Z,29.60
2019-01-10T08:37:34.305Z,26.50
2019-01-10T08:40:06.363Z,27.32
2019-01-10T08:42:36.267Z,24.27
2019-01-10T08:45:06.976Z,27.25
2019-01-10T08:47:36.921Z,24.50
2019-01-10T08:50:47.534Z,26.17
2019-01-10T08:53:21.856Z,24.87
2019-01-10T08:55:54.926Z,23.40
2019-01-10T08:58:26.752Z,22.00
2019-01-10T09:00:57.592Z,22.32
2019-01-10T09:03:28.544Z,24.92
2019-01-10T09:06:07.864Z,26.55
2019-01-10T09:08:33.771Z,27.22
2019-01-10T09:11:24.737Z,28.00
2019-01-10T09:18:09.442Z,27.70
2019-01-10T09:20:47.979Z,23.90
2019-01-10T09:23:20.768Z,21.90
2019-01-10T09:26:01.243Z,24.65
2019-01-10T09:28:40.710Z,20.75
2019-01-10T09:31:10.992Z,21.77
2019-01-10T09:33:46.240Z,22.62
2019-01-10T09:36:16.026Z,23.98
2019-01-10T09:38:47.659Z,22.25
2019-01-10T09:41:27.446Z,24.57
2019-01-10T09:44:38.775Z,24.25
2019-01-10T09:54:08.188Z,20.92
2019-01-10T09:56:50.072Z,24.60
2019-01-10T09:59:21.057Z,23.80
2019-01-10T10:01:50.850Z,25.23
2019-01-10T10:04:21.145Z,20.27
2019-01-10T10:06:51.019Z,23.57
2019-01-10T10:09:20.816Z,25.20
2019-01-10T10:11:54.604Z,26.73
2019-01-10T10:14:49.895Z,26.15
2019-01-10T10:17:22.147Z,25.00
2019-01-10T10:20:02.604Z,25.05
2019-01-10T11:11:00.623Z,26.60
2019-01-10T11:13:30.654Z,25.02
2019-01-10T11:16:10.200Z,27.77
2019-01-10T11:18:33.078Z,26.45
2019-01-10T11:21:02.809Z,27.62
2019-01-10T11:23:33.059Z,25.30
2019-01-10T11:26:03.044Z,27.40
2019-01-10T11:28:32.943Z,30.30
2019-01-10T11:31:03.119Z,27.52
2019-01-10T11:33:32.958Z,26.57
2019-01-10T11:36:02.821Z,26.85
2019-01-10T11:38:32.719Z,24.60
2019-01-10T11:41:03.150Z,24.82
2019-01-10T11:43:33.099Z,29.65
2019-01-10T11:46:03.167Z,28.17
2019-01-10T11:48:33.225Z,28.45
2019-01-10T11:51:03.252Z,28.10
2019-01-10T11:53:35.644Z,25.72
2019-01-10T11:56:05.298Z,28.57
2019-01-10T11:58:42.151Z,28.42
2019-01-10T12:01:12.548Z,27.77
2019-01-10T12:03:43.408Z,26.37
2019-01-10T12:06:13.996Z,27.42
2019-01-10T12:08:44.188Z,27.95
2019-01-10T12:11:19.681Z,26.48
2019-01-10T12:17:11.055Z,26.68
2019-01-10T12:20:26.244Z,29.52
2019-01-10T12:23:52.663Z,24.57
2019-01-10T12:27:05.423Z,27.32
2019-01-10T12:30:07.460Z,23.87
2019-01-10T12:32:59.940Z,26.02
2019-01-10T12:39:23.110Z,22.60
2019-01-10T12:49:22.816Z,20.27
2019-01-10T12:52:56.621Z,20.88
2019-01-10T12:56:31.165Z,22.10
2019-01-10T13:10:22.114Z,20.27
2019-01-10T13:13:05.644Z,19.40
2019-01-10T13:15:42.617Z,17.48
2019-01-10T13:18:23.942Z,17.82
2019-01-10T13:20:54.611Z,19.27
2019-01-10T13:23:27.328Z,19.50
2019-01-10T13:25:59.742Z,20.88
2019-01-10T13:28:29.201Z,17.70
2019-01-10T13:30:59.809Z,16.52
2019-01-10T13:33:31.343Z,18.95
2019-01-10T13:36:07.482Z,17.10
2019-01-10T13:38:38.796Z,19.67
2019-01-10T13:41:10.688Z,18.07
2019-01-10T13:43:41.041Z,15.90
2019-01-10T13:46:11.007Z,16.85
2019-01-10T13:48:40.871Z,17.45
2019-01-10T13:51:10.737Z,19.80
2019-01-10T13:53:40.748Z,17.65
2019-01-10T13:56:10.507Z,14.68
2019-01-10T13:58:40.489Z,14.28
2019-01-10T14:01:10.385Z,14.75
2019-01-10T14:03:40.214Z,14.80
2019-01-10T14:06:10.246Z,16.37
2019-01-10T14:08:40.171Z,15.78
2019-01-10T14:11:10.186Z,15.18
2019-01-10T14:13:40.017Z,14.73
2019-01-10T14:16:09.897Z,15.32
2019-01-10T14:18:39.693Z,16.80
2019-01-10T14:21:09.497Z,14.15
2019-01-10T14:23:39.251Z,15.83
2019-01-10T14:26:10.771Z,14.45
2019-01-10T14:28:40.673Z,15.35
2019-01-10T14:31:10.614Z,20.55
2019-01-10T14:33:40.317Z,19.27
2019-01-10T14:36:10.244Z,17.77
2019-01-10T14:38:39.951Z,15.38
2019-01-10T14:41:09.702Z,14.38
2019-01-10T14:43:39.452Z,13.78
2019-01-10T14:46:09.414Z,16.45
2019-01-10T14:48:39.195Z,18.45
2019-01-10T14:51:09.026Z,18.23
2019-01-10T14:53:38.907Z,15.85
2019-01-10T14:56:08.596Z,14.87
2019-01-10T14:58:38.418Z,15.35
2019-01-10T15:01:08.106Z,15.03
2019-01-10T15:03:38.105Z,15.93
2019-01-10T15:06:07.828Z,16.75
2019-01-10T15:08:37.545Z,14.03
2019-01-10T15:11:07.443Z,13.95
2019-01-10T15:13:37.258Z,14.28
2019-01-10T15:16:07.268Z,14.73
2019-01-10T15:18:37.024Z,12.65
2019-01-10T15:21:06.793Z,15.30
2019-01-10T15:23:36.588Z,14.20
2019-01-10T15:26:06.583Z,14.38
2019-01-10T15:28:36.328Z,13.43
2019-01-10T15:31:06.011Z,12.20
2019-01-10T15:33:35.692Z,11.28
2019-01-10T15:36:05.566Z,13.30
2019-01-10T15:38:35.305Z,9.95
2019-01-10T15:41:05.409Z,7.87
2019-01-10T15:43:35.233Z,9.58
2019-01-10T15:46:05.520Z,8.90
2019-01-10T15:48:35.550Z,9.73
2019-01-10T15:51:05.381Z,8.75
2019-01-10T15:53:35.082Z,9.70
2019-01-10T15:56:05.227Z,9.65
2019-01-10T15:58:35.054Z,10.85
2019-01-10T16:01:04.841Z,10.23
2019-01-10T16:03:34.531Z,12.03
2019-01-10T16:06:04.457Z,11.80
2019-01-10T16:08:34.157Z,14.05
2019-01-10T16:11:03.836Z,12.93
2019-01-10T16:13:33.572Z,15.23
2019-01-10T16:16:03.498Z,16.75
2019-01-10T16:18:33.249Z,16.97
2019-01-10T16:21:03.020Z,15.95
2019-01-10T16:23:32.729Z,14.53
2019-01-10T16:26:02.431Z,13.78
2019-01-10T16:28:32.186Z,14.50
2019-01-10T16:31:01.873Z,15.70
2019-01-10T16:33:31.594Z,15.10
2019-01-10T16:36:01.349Z,14.98
2019-01-10T16:38:31.036Z,15.95
2019-01-10T16:41:00.874Z,12.55
2019-01-10T16:43:30.612Z,14.55
2019-01-10T16:46:00.449Z,11.65
2019-01-10T16:48:30.204Z,12.63
2019-01-10T16:50:59.997Z,11.83
2019-01-10T16:53:29.660Z,11.85
2019-01-10T16:55:59.563Z,15.10
2019-01-10T16:58:29.276Z,17.50
2019-01-10T17:00:59.048Z,14.55
2019-01-10T17:03:28.752Z,14.53
2019-01-10T17:05:58.496Z,13.80
2019-01-10T17:08:28.284Z,14.83
2019-01-10T17:10:58.184Z,14.85
2019-01-10T17:13:27.949Z,14.33
2019-01-10T17:15:57.721Z,13.40
2019-01-10T17:18:27.425Z,14.58
2019-01-10T17:20:57.366Z,13.32
2019-01-10T17:23:27.060Z,15.43
2019-01-10T17:25:56.906Z,15.50
2019-01-10T17:28:26.668Z,12.70
2019-01-10T17:30:56.374Z,12.75
2019-01-10T17:33:26.141Z,11.00
2019-01-10T17:35:56.386Z,12.75
2019-01-10T17:38:26.090Z,13.60
2019-01-10T17:40:55.964Z,14.00
2019-01-10T17:43:25.705Z,11.95
2019-01-10T17:45:55.684Z,13.78
2019-01-10T17:48:25.535Z,12.40
2019-01-10T17:50:55.315Z,13.45
2019-01-10T17:53:26.121Z,13.20
2019-01-10T17:55:55.943Z,11.68
2019-01-10T17:58:25.679Z,13.00
2019-01-10T18:00:55.432Z,14.95
2019-01-10T18:03:25.125Z,14.58
2019-01-10T18:05:54.898Z,12.50
2019-01-10T18:08:24.582Z,13.53
2019-01-10T18:10:54.294Z,12.95
2019-01-10T18:13:27.307Z,12.80
2019-01-10T18:15:57.145Z,13.22
2019-01-10T18:18:27.579Z,13.55
2019-01-10T18:20:57.576Z,13.22
2019-01-10T18:23:27.340Z,15.30
2019-01-10T18:25:57.130Z,13.68
2019-01-10T18:28:26.981Z,14.95
2019-01-10T18:30:57.150Z,14.55
2019-01-10T18:33:26.881Z,13.15
2019-01-10T18:35:57.250Z,14.00
2019-01-10T18:38:27.250Z,14.98
2019-01-10T18:40:58.614Z,14.18
2019-01-10T18:43:28.601Z,13.30
2019-01-10T18:45:58.398Z,13.45
2019-01-10T18:48:28.641Z,14.87
2019-01-10T18:51:00.780Z,14.70
2019-01-10T18:53:31.007Z,14.55
2019-01-10T18:56:01.045Z,15.05
2019-01-10T18:58:31.199Z,14.85
2019-01-10T19:01:01.251Z,17.23
2019-01-10T19:03:31.128Z,14.85
2019-01-10T19:06:00.978Z,14.68
2019-01-10T19:08:30.838Z,15.50
2019-01-10T19:11:00.772Z,20.70
2019-01-10T19:13:30.880Z,21.12
2019-01-10T19:16:01.101Z,16.45
2019-01-10T19:18:31.019Z,18.35
2019-01-10T19:21:00.864Z,17.80
2019-01-10T19:23:30.730Z,16.82
2019-01-10T19:26:00.578Z,15.72
2019-01-10T19:28:31.034Z,15.10
2019-01-10T19:31:01.443Z,17.07
2019-01-10T19:33:31.297Z,14.63
2019-01-10T19:36:01.789Z,15.32
2019-01-10T19:38:32.144Z,14.05
2019-01-10T19:41:02.493Z,13.62
2019-01-10T19:43:32.566Z,14.28
2019-01-10T19:46:02.461Z,14.78
2019-01-10T19:48:32.388Z,14.78
2019-01-10T19:51:02.791Z,12.63
2019-01-10T19:53:32.552Z,13.65
2019-01-10T19:56:02.465Z,13.53
2019-01-10T19:58:32.411Z,13.98
2019-01-10T20:01:02.656Z,14.33
2019-01-10T20:03:32.582Z,11.40
2019-01-10T20:06:02.770Z,12.05
2019-01-10T20:08:32.796Z,11.90
2019-01-10T20:11:02.614Z,12.03
2019-01-10T20:13:32.413Z,12.53
2019-01-10T20:16:02.331Z,12.15
2019-01-10T20:18:32.074Z,11.95
2019-01-10T20:21:01.920Z,11.95
2019-01-10T20:23:34.695Z,11.12
2019-01-10T20:26:04.958Z,12.07
2019-01-10T20:28:34.838Z,11.35
2019-01-10T20:31:05.611Z,12.20
2019-01-10T20:33:35.475Z,12.98
2019-01-10T20:36:05.541Z,13.00
2019-01-10T20:38:35.365Z,12.95
2019-01-10T20:41:05.206Z,12.30
2019-01-10T20:43:35.018Z,13.18
2019-01-10T20:46:04.999Z,11.15
2019-01-10T20:48:35.010Z,11.80
2019-01-10T20:51:04.889Z,12.90
2019-01-10T20:53:34.683Z,12.90
2019-01-10T20:56:04.611Z,12.10
2019-01-10T20:58:34.410Z,10.50
2019-01-10T21:01:04.236Z,12.15
2019-01-10T21:03:34.021Z,12.78
2019-01-10T21:06:04.512Z,14.18
2019-01-10T21:08:34.226Z,13.48
2019-01-10T21:11:04.006Z,12.10
2019-01-10T21:13:33.865Z,12.65
2019-01-10T21:16:03.582Z,14.20
2019-01-10T21:18:33.312Z,14.50
2019-01-10T21:21:03.033Z,14.47
2019-01-10T21:23:32.977Z,14.43
2019-01-10T21:26:02.812Z,12.50
2019-01-10T21:28:32.525Z,14.40
2019-01-10T21:31:02.229Z,12.15
2019-01-10T21:33:32.038Z,13.80
2019-01-10T21:36:01.730Z,14.25
2019-01-10T21:38:31.523Z,13.28
2019-01-10T21:41:01.285Z,13.22
2019-01-10T21:43:30.997Z,14.93
2019-01-10T21:46:00.686Z,12.45
2019-01-10T21:48:35.071Z,14.50
2019-01-10T21:51:01.770Z,13.68
2019-01-10T21:53:31.551Z,12.70
2019-01-10T21:56:01.840Z,13.30
2019-01-10T21:58:33.231Z,12.95
2019-01-10T22:01:03.680Z,13.22
2019-01-10T22:03:33.419Z,12.55
2019-01-10T22:06:03.095Z,11.30
2019-01-10T22:08:32.782Z,11.25
2019-01-10T22:11:02.535Z,12.65
2019-01-10T22:13:32.489Z,12.75
2019-01-10T22:16:02.321Z,11.63
2019-01-10T22:18:41.590Z,13.70
2019-01-10T22:21:11.621Z,11.90
2019-01-10T22:23:41.414Z,13.18
2019-01-10T22:26:11.156Z,13.32
2019-01-10T22:28:40.877Z,12.05
2019-01-10T22:31:11.122Z,12.33
2019-01-10T22:33:40.973Z,11.30
2019-01-10T22:36:10.663Z,14.78
2019-01-10T22:38:40.388Z,13.18
2019-01-10T22:41:10.144Z,11.73
2019-01-10T22:43:40.082Z,12.95
2019-01-10T22:46:09.979Z,16.23
2019-01-10T22:48:40.129Z,13.95
2019-01-10T22:51:10.344Z,14.00
2019-01-10T22:53:40.043Z,13.62
2019-01-10T22:56:09.812Z,12.20
2019-01-10T22:58:41.586Z,12.40
2019-01-10T23:01:46.048Z,12.58
2019-01-10T23:04:25.418Z,11.30
2019-01-10T23:06:55.226Z,12.75
2019-01-10T23:09:25.041Z,14.07
2019-01-10T23:11:54.763Z,12.73
2019-01-10T23:14:24.536Z,14.13
2019-01-10T23:16:54.475Z,13.78
2019-01-10T23:19:24.197Z,13.25
2019-01-10T23:21:53.914Z,14.95
2019-01-10T23:24:26.860Z,16.12
2019-01-10T23:26:55.952Z,15.60
2019-01-10T23:29:34.219Z,15.75
2019-01-10T23:32:12.549Z,14.53
2019-01-10T23:34:48.499Z,15.98
2019-01-10T23:37:25.582Z,15.78
2019-01-10T23:39:55.882Z,14.28
2019-01-10T23:42:25.752Z,15.10
2019-01-10T23:44:55.443Z,15.18
2019-01-10T23:47:44.218Z,14.23
2019-01-10T23:50:13.935Z,14.35
2019-01-10T23:52:43.640Z,13.88
2019-01-10T23:55:13.395Z,11.95
2019-01-10T23:57:43.106Z,11.78
